Airfield :
LOGIN :

Register | Disclaimer

   EN    FR    IT 

 










Legend :    VFR   Marginal VFR   IFR   Intensive IFR   Very Intensive IFR
Visi :
Ceiling :
>= 8 km
>= 3000ft
5 to 8 km
1000 to 3000 ft
1500m to 5 km
500 to 1000 ft
800 to 1500m
200 to 500 ft
< 800m
< 200 ft
Symbols :   Thunderstorms  Fog  Heavy snow  Heavy precipitations  Wind > 20 kt
SIGMETs :     Misc.  Thunderstorms  Icing  Turbulence  Mountain Waves  Volcanic Ashes






- Airport Elevation : 146 ft
- IATA code : RKE


EKRK - Roskilde Tune

CURRENT METAR :
  • 191520Z AUTO 21014KT 9999 OVC009/// 08/07 Q1010

EXPIRED METARs :
  • 191450Z AUTO 21012KT 9999 -RA OVC005/// 08/07 Q1010
  • 191420Z AUTO 18007KT 2300 -DZ OVC004/// 07/06 Q1010
  • 191350Z AUTO 17006KT 1700 -DZ BR OVC005/// 06/06 Q1009
  • 191320Z AUTO 18005KT 9999 OVC008/// 07/05 Q1009
  • 191250Z AUTO 19004KT 9999 OVC008/// 06/05 Q1008

TAF TAF EKRK
Valid from the 19 at 15:00 until the 20 at 00:00 UTC


191402Z 1915/1924 17010KT 2500 DZ BKN004
BECMG 1915/1917 23012KT 8000 NSW BKN012
BECMG 1917/1919 BKN015
TEMPO 1919/1922 BKN012



MET'MAP, your aeronautical weather chart ! - Copyright ORBIFLY December 2007 - Disclaimer

ORBIFLY MET'MAP TEAM :

Programming & Development : Alexandra Zaïnal
Concept & Development : Baudouin d'Aumeries
Co-Development & Prog : Marc-Olivier Méhu
Technical & hardware support : Manuel Goepfert

Contact : metmap@orbifly.com




SOURCES & CREDITS :

   NOAA